Time;durP1;ratioP1;P1;durP2;ratioP2;P2;SDS_P1;SDS_P2;PMS_P1;PMS_P2;Temp;Humidity;BMP_temperature;BMP_pressure;BME280_temperature;BME280_humidity;BME280_pressure;Samples;Min_cycle;Max_cycle;Signal;HPM_P1;HPM_P2
2022/10/03 00:00:20;;;;;;;8.17;7.33;;;13.10;99.90;;;;;;4998429;28;20426;-63
2022/10/03 00:03:12;;;;;;;10.90;7.63;;;13.10;99.90;;;;;;5015836;28;20458;-69
2022/10/03 00:06:08;;;;;;;10.00;7.23;;;13.10;99.90;;;;;;5015846;28;20573;-64
2022/10/03 00:09:07;;;;;;;12.30;7.07;;;13.20;99.90;;;;;;5015599;28;20938;-63
2022/10/03 00:12:01;;;;;;;9.30;6.40;;;13.20;99.90;;;;;;5015704;28;20419;-63
2022/10/03 00:14:43;;;;;;;8.07;6.10;;;13.20;99.90;;;;;;5015798;28;20411;-63
2022/10/03 00:17:20;;;;;;;11.60;7.40;;;13.20;99.90;;;;;;5015470;28;20429;-64
2022/10/03 00:20:29;;;;;;;8.77;7.43;;;13.20;99.90;;;;;;4998271;28;20780;-64
2022/10/03 00:23:19;;;;;;;8.93;5.93;;;13.20;99.90;;;;;;4994691;28;20443;-64
2022/10/03 00:25:54;;;;;;;7.10;5.93;;;13.20;99.90;;;;;;5015343;28;20978;-64
2022/10/03 00:28:55;;;;;;;12.90;7.10;;;13.20;99.90;;;;;;5015334;28;20753;-64
2022/10/03 00:31:33;;;;;;;8.93;6.80;;;13.20;99.90;;;;;;5013227;28;20468;-63
2022/10/03 00:34:27;;;;;;;9.30;6.50;;;13.20;99.90;;;;;;5014887;28;20408;-64
2022/10/03 00:37:07;;;;;;;7.23;6.43;;;13.20;99.90;;;;;;4997239;28;20427;-64
2022/10/03 00:39:36;;;;;;;6.50;5.77;;;13.20;99.90;;;;;;5015025;28;20409;-63
2022/10/03 00:42:07;;;;;;;7.77;6.00;;;13.20;99.90;;;;;;5014601;28;20429;-64
2022/10/03 00:44:55;;;;;;;8.37;6.03;;;13.20;99.90;;;;;;5015202;28;20484;-64
2022/10/03 00:47:45;;;;;;;6.83;5.90;;;13.20;99.90;;;;;;5015393;28;20821;-64
2022/10/03 00:50:35;;;;;;;8.90;6.00;;;13.10;99.90;;;;;;5014495;28;20423;-64
2022/10/03 00:53:26;;;;;;;7.10;5.97;;;13.10;99.90;;;;;;5014857;28;20788;-64
2022/10/03 00:55:54;;;;;;;6.67;6.00;;;13.10;99.90;;;;;;5014177;28;20955;-64
2022/10/03 00:58:46;;;;;;;9.83;5.83;;;13.00;99.90;;;;;;5014947;28;20411;-64
2022/10/03 01:01:28;;;;;;;8.67;5.63;;;13.00;99.90;;;;;;5014383;28;20399;-64
2022/10/03 01:04:14;;;;;;;6.60;5.83;;;12.90;99.90;;;;;;5014305;28;20407;-64
2022/10/03 01:06:47;;;;;;;13.37;5.80;;;12.90;99.90;;;;;;5014667;28;20955;-63
2022/10/03 01:09:55;;;;;;;5.70;5.20;;;12.90;99.90;;;;;;5014242;28;20454;-64
2022/10/03 01:12:35;;;;;;;10.43;6.40;;;12.90;99.90;;;;;;5014882;28;20409;-63
2022/10/03 01:15:21;;;;;;;6.97;6.30;;;12.90;99.90;;;;;;5014006;28;20856;-64
2022/10/03 01:17:59;;;;;;;12.50;6.40;;;12.90;99.90;;;;;;5014662;28;20414;-64
2022/10/03 01:20:57;;;;;;;6.27;5.77;;;12.90;99.90;;;;;;5014769;28;20893;-64
2022/10/03 01:23:53;;;;;;;8.47;6.80;;;12.80;99.90;;;;;;5014551;28;20883;-64
2022/10/03 01:26:52;;;;;;;7.13;6.43;;;12.70;99.90;;;;;;5014511;28;20414;-64
2022/10/03 01:32:40;;;;;;;8.47;6.60;;;12.70;99.90;;;;;;5013890;28;20399;-64
2022/10/03 01:35:25;;;;;;;8.00;6.87;;;12.70;99.90;;;;;;5013556;28;20456;-64
2022/10/03 01:38:12;;;;;;;8.40;7.17;;;12.70;99.90;;;;;;4996749;28;20433;-64
2022/10/03 01:40:50;;;;;;;9.40;6.77;;;12.70;99.90;;;;;;5014254;28;20509;-64
2022/10/03 01:43:23;;;;;;;8.30;6.87;;;12.70;99.90;;;;;;5013240;28;20773;-63
2022/10/03 01:46:21;;;;;;;7.20;6.53;;;12.70;99.90;;;;;;5014173;28;20469;-64
2022/10/03 01:49:01;;;;;;;7.60;6.33;;;12.70;99.90;;;;;;5014139;28;20422;-64
2022/10/03 01:51:44;;;;;;;12.10;6.80;;;12.80;99.90;;;;;;5014059;28;20422;-64
2022/10/03 01:54:37;;;;;;;7.53;6.80;;;12.80;99.90;;;;;;5013408;28;20546;-63
2022/10/03 01:57:18;;;;;;;7.47;5.90;;;12.80;99.90;;;;;;5013379;28;20414;-63
2022/10/03 01:59:57;;;;;;;6.73;6.13;;;12.80;99.90;;;;;;5013865;28;20419;-64
2022/10/03 02:02:31;;;;;;;10.47;6.20;;;12.80;99.90;;;;;;5013951;28;20416;-63
2022/10/03 02:05:11;;;;;;;7.47;5.90;;;12.80;99.90;;;;;;5012856;28;20892;-64
2022/10/03 02:07:57;;;;;;;8.80;6.80;;;12.70;99.90;;;;;;5012980;28;20458;-64
2022/10/03 02:10:49;;;;;;;9.30;6.90;;;12.70;99.90;;;;;;5012165;28;20414;-63
2022/10/03 02:13:42;;;;;;;14.17;7.30;;;12.70;99.90;;;;;;5012242;28;20429;-64
2022/10/03 02:16:41;;;;;;;9.23;6.30;;;12.70;99.90;;;;;;5011963;28;20481;-64
2022/10/03 02:19:32;;;;;;;6.43;5.73;;;12.70;99.90;;;;;;4995979;28;20412;-64
2022/10/03 02:21:59;;;;;;;7.07;6.10;;;12.70;99.90;;;;;;5012153;28;20883;-64
2022/10/03 02:24:52;;;;;;;8.87;6.00;;;12.70;99.90;;;;;;5012710;28;20808;-64
2022/10/03 02:27:45;;;;;;;9.60;6.30;;;12.70;99.90;;;;;;5011920;28;20416;-64
2022/10/03 02:30:27;;;;;;;6.83;5.97;;;12.70;99.90;;;;;;4994430;28;20807;-64
2022/10/03 02:33:14;;;;;;;6.47;5.73;;;12.60;99.90;;;;;;5012317;28;20402;-64
2022/10/03 02:35:46;;;;;;;6.13;5.63;;;12.70;99.90;;;;;;5012494;28;20446;-64
2022/10/03 02:38:38;;;;;;;6.30;5.80;;;12.70;99.90;;;;;;5011891;28;20446;-64
2022/10/03 02:41:38;;;;;;;6.60;6.00;;;12.60;99.90;;;;;;5011930;28;20403;-64
2022/10/03 02:44:19;;;;;;;10.13;6.40;;;12.60;99.90;;;;;;5011547;28;20892;-64
2022/10/03 02:47:07;;;;;;;8.87;6.30;;;12.60;99.90;;;;;;5012130;28;20433;-64
2022/10/03 02:50:00;;;;;;;6.37;5.57;;;12.60;99.90;;;;;;5012123;28;20401;-63
2022/10/03 02:53:06;;;;;;;6.80;6.10;;;12.60;99.90;;;;;;5012205;28;20423;-64
2022/10/03 02:56:14;;;;;;;9.40;6.37;;;12.60;99.90;;;;;;5012160;28;20475;-64
2022/10/03 02:59:08;;;;;;;6.53;5.83;;;12.60;99.90;;;;;;5012048;28;20917;-64
2022/10/03 03:01:45;;;;;;;10.10;7.00;;;12.70;99.90;;;;;;5012156;28;20398;-64
2022/10/03 03:04:17;;;;;;;10.10;7.47;;;12.60;99.90;;;;;;5011476;28;20410;-64
2022/10/03 03:07:12;;;;;;;11.33;7.10;;;12.60;99.90;;;;;;4974856;28;1089986;-64
2022/10/03 03:10:06;;;;;;;10.50;7.17;;;12.60;99.90;;;;;;5002126;28;20192;-64
2022/10/03 03:13:12;;;;;;;9.60;6.90;;;12.70;99.90;;;;;;5013007;28;20478;-62
2022/10/03 03:16:15;;;;;;;12.10;6.57;;;12.70;99.90;;;;;;4951887;29;20927;-63
2022/10/03 03:18:48;;;;;;;7.80;6.33;;;12.70;99.90;;;;;;4952075;29;20432;-63
2022/10/03 03:21:28;;;;;;;11.23;6.60;;;12.70;99.90;;;;;;4951580;29;20413;-63
2022/10/03 03:24:35;;;;;;;8.17;6.17;;;12.70;99.90;;;;;;4954967;29;20409;-63
2022/10/03 03:27:22;;;;;;;10.60;6.70;;;12.70;99.90;;;;;;4955451;29;20452;-64
2022/10/03 03:30:08;;;;;;;8.00;7.20;;;12.70;99.90;;;;;;4956164;29;20416;-63
2022/10/03 03:32:48;;;;;;;9.00;7.30;;;12.70;99.90;;;;;;4955826;29;20945;-63
2022/10/03 03:35:32;;;;;;;9.30;7.30;;;12.70;99.90;;;;;;4955212;29;20511;-64
2022/10/03 03:38:14;;;;;;;6.50;5.87;;;12.70;99.90;;;;;;4955864;29;20419;-63
2022/10/03 03:41:05;;;;;;;8.33;6.60;;;12.60;99.90;;;;;;4955785;29;20511;-63
2022/10/03 03:43:49;;;;;;;7.87;6.73;;;12.60;99.90;;;;;;4955869;29;20401;-63
2022/10/03 03:46:37;;;;;;;8.10;6.40;;;12.70;99.90;;;;;;4982487;28;20418;-63
2022/10/03 03:49:30;;;;;;;7.10;6.60;;;12.60;99.90;;;;;;5015671;28;20439;-63
2022/10/03 03:52:18;;;;;;;13.23;7.43;;;12.60;99.90;;;;;;5016320;28;20402;-63
2022/10/03 03:54:55;;;;;;;6.93;6.23;;;12.50;99.90;;;;;;5015867;28;20453;-63
2022/10/03 03:57:58;;;;;;;10.13;6.50;;;12.50;99.90;;;;;;4981802;28;20777;-63
2022/10/03 04:00:46;;;;;;;7.80;6.60;;;12.40;99.90;;;;;;5015469;28;20464;-63
2022/10/03 04:03:21;;;;;;;7.80;6.87;;;12.40;99.90;;;;;;5015373;28;20421;-63
2022/10/03 04:06:13;;;;;;;6.70;6.10;;;12.30;99.90;;;;;;5015711;28;20461;-63
2022/10/03 04:09:02;;;;;;;6.03;5.53;;;12.30;99.90;;;;;;4998752;28;20572;-63
2022/10/03 04:11:58;;;;;;;7.53;6.10;;;12.30;99.90;;;;;;5015920;28;20399;-63
2022/10/03 04:14:59;;;;;;;8.50;6.70;;;12.20;99.90;;;;;;5014902;28;20418;-63
2022/10/03 04:20:48;;;;;;;6.80;6.27;;;12.10;99.90;;;;;;5015940;28;20411;-63
2022/10/03 04:23:41;;;;;;;9.30;6.73;;;12.10;99.90;;;;;;5015059;28;20911;-63
2022/10/03 04:26:30;;;;;;;6.90;6.30;;;12.10;99.90;;;;;;5015076;28;20414;-63
2022/10/03 04:29:16;;;;;;;9.10;6.53;;;12.10;99.90;;;;;;4997941;28;20513;-63
2022/10/03 04:32:00;;;;;;;10.30;6.30;;;12.10;99.90;;;;;;4997844;28;20906;-63
2022/10/03 04:34:48;;;;;;;7.53;6.93;;;12.20;99.90;;;;;;4997094;28;20426;-63
2022/10/03 04:37:48;;;;;;;12.27;7.90;;;12.20;99.90;;;;;;5015059;28;20444;-63
2022/10/03 04:40:38;;;;;;;8.57;7.13;;;12.20;99.90;;;;;;5014783;28;20511;-63
2022/10/03 04:43:27;;;;;;;9.07;7.03;;;12.20;99.90;;;;;;5014816;28;20416;-65
2022/10/03 04:46:14;;;;;;;7.90;7.20;;;12.20;99.90;;;;;;5015362;28;20448;-63
2022/10/03 04:48:50;;;;;;;9.60;7.33;;;12.20;99.90;;;;;;5015324;28;20406;-63
2022/10/03 04:51:33;;;;;;;8.20;7.40;;;12.20;99.90;;;;;;5014607;28;20386;-63
2022/10/03 04:54:21;;;;;;;14.33;7.73;;;12.20;99.90;;;;;;4997685;28;20753;-63
2022/10/03 04:57:09;;;;;;;8.53;6.70;;;12.20;99.90;;;;;;4997422;28;20472;-63
2022/10/03 05:00:24;;;;;;;7.63;6.67;;;12.20;99.90;;;;;;5014989;28;20457;-63
2022/10/03 05:03:21;;;;;;;9.13;7.67;;;12.20;99.90;;;;;;4988673;28;20464;-63
2022/10/03 05:05:59;;;;;;;9.50;8.27;;;12.20;99.90;;;;;;5014779;28;20466;-63
2022/10/03 05:08:37;;;;;;;8.03;7.30;;;12.20;99.90;;;;;;5014266;28;20409;-63
2022/10/03 05:11:22;;;;;;;9.10;8.20;;;12.20;99.90;;;;;;5014837;28;20409;-63
2022/10/03 05:14:09;;;;;;;7.93;7.23;;;12.20;99.90;;;;;;5014865;28;20451;-63
2022/10/03 05:17:11;;;;;;;9.10;7.40;;;12.10;99.90;;;;;;5014368;28;20481;-63
2022/10/03 05:19:48;;;;;;;8.10;6.93;;;12.20;99.90;;;;;;4963863;28;20909;-63
2022/10/03 05:22:29;;;;;;;8.73;6.80;;;12.20;99.90;;;;;;5013987;28;20402;-63
2022/10/03 05:25:31;;;;;;;9.47;7.50;;;12.20;99.90;;;;;;5014662;28;20460;-63
2022/10/03 05:28:05;;;;;;;10.20;7.83;;;12.20;99.90;;;;;;5014504;28;20403;-63
2022/10/03 05:30:34;;;;;;;10.50;8.67;;;12.20;99.90;;;;;;5014409;28;20425;-63
2022/10/03 05:33:06;;;;;;;14.30;9.23;;;12.30;99.90;;;;;;5014296;28;20771;-63
2022/10/03 05:35:59;;;;;;;9.70;8.43;;;12.30;99.90;;;;;;5014275;28;20454;-63
2022/10/03 05:38:36;;;;;;;12.70;9.03;;;12.30;99.90;;;;;;5013652;28;20465;-63
2022/10/03 05:41:08;;;;;;;9.40;8.50;;;12.30;99.90;;;;;;5013999;28;20890;-63
2022/10/03 05:43:57;;;;;;;12.40;8.43;;;12.30;99.90;;;;;;4996667;28;20411;-63
2022/10/03 05:46:35;;;;;;;11.43;7.60;;;12.30;99.90;;;;;;5012894;28;20432;-63
2022/10/03 05:49:18;;;;;;;10.53;7.90;;;12.30;99.90;;;;;;5014059;28;20422;-63
2022/10/03 05:52:11;;;;;;;11.03;8.00;;;12.30;99.90;;;;;;5014129;28;20557;-63
2022/10/03 05:55:08;;;;;;;10.90;8.80;;;12.30;99.90;;;;;;5014145;28;20421;-63
2022/10/03 05:58:05;;;;;;;9.50;8.60;;;12.40;99.90;;;;;;4996234;28;20480;-63
2022/10/03 06:01:16;;;;;;;10.37;9.27;;;12.40;99.90;;;;;;5013311;28;20445;-63
2022/10/03 06:04:00;;;;;;;10.10;8.70;;;12.40;99.90;;;;;;5014032;28;20402;-63
2022/10/03 06:06:47;;;;;;;9.80;8.73;;;12.40;99.90;;;;;;5012977;28;20508;-63
2022/10/03 06:09:34;;;;;;;12.83;8.97;;;12.50;99.90;;;;;;5013097;28;20774;-64
2022/10/03 06:12:06;;;;;;;14.20;9.20;;;12.50;99.90;;;;;;4996012;28;20414;-63
2022/10/03 06:15:12;;;;;;;13.30;9.50;;;12.60;99.90;;;;;;5012939;28;20430;-63
2022/10/03 06:17:45;;;;;;;10.77;9.27;;;12.60;99.90;;;;;;5012910;28;20492;-63
2022/10/03 06:20:44;;;;;;;14.07;9.43;;;12.60;99.90;;;;;;5012884;28;20423;-63
2022/10/03 06:23:31;;;;;;;13.40;9.60;;;12.70;99.90;;;;;;5012956;28;20421;-65
2022/10/03 06:26:13;;;;;;;11.77;9.70;;;12.70;99.90;;;;;;5013614;28;20412;-63
2022/10/03 06:29:07;;;;;;;10.97;9.73;;;12.70;99.90;;;;;;5013413;28;20414;-63
2022/10/03 06:31:51;;;;;;;9.30;8.40;;;12.70;99.90;;;;;;5012767;28;20421;-63
2022/10/03 06:34:36;;;;;;;10.77;9.70;;;12.70;99.90;;;;;;5012807;28;20406;-63
2022/10/03 06:37:48;;;;;;;12.63;9.23;;;12.70;99.90;;;;;;5013349;28;20502;-63
2022/10/03 06:40:41;;;;;;;15.70;10.23;;;12.70;99.90;;;;;;5012700;28;20415;-63
2022/10/03 06:43:34;;;;;;;12.87;10.20;;;12.80;99.90;;;;;;5013258;28;20407;-64
2022/10/03 06:46:18;;;;;;;17.43;10.10;;;12.80;99.90;;;;;;5012998;28;20414;-63
2022/10/03 06:49:20;;;;;;;12.23;10.27;;;12.90;99.90;;;;;;5013042;28;20423;-63
2022/10/03 06:52:24;;;;;;;11.57;8.87;;;12.90;99.90;;;;;;5013026;28;20898;-63
2022/10/03 06:55:19;;;;;;;12.97;9.37;;;13.00;99.90;;;;;;5013083;28;20499;-63
2022/10/03 06:58:23;;;;;;;13.30;10.40;;;13.00;99.90;;;;;;4995218;28;20448;-64
2022/10/03 07:00:54;;;;;;;13.63;10.53;;;13.20;99.90;;;;;;5013072;28;20415;-63
2022/10/03 07:03:26;;;;;;;13.50;10.20;;;13.20;99.90;;;;;;5012258;28;20432;-63
2022/10/03 07:06:21;;;;;;;13.97;10.50;;;13.20;99.90;;;;;;5012446;28;20475;-63
2022/10/03 07:09:03;;;;;;;16.93;10.47;;;13.30;99.90;;;;;;5012645;28;20841;-63
2022/10/03 07:11:47;;;;;;;16.17;10.40;;;13.40;99.90;;;;;;5012092;28;20857;-63
2022/10/03 07:14:42;;;;;;;15.60;10.40;;;13.50;99.90;;;;;;5012317;28;20437;-64
2022/10/03 07:17:30;;;;;;;16.30;10.50;;;13.60;99.90;;;;;;5012919;28;20448;-63
2022/10/03 07:20:22;;;;;;;16.37;10.87;;;13.70;99.90;;;;;;5012717;28;20421;-63
2022/10/03 07:23:26;;;;;;;18.47;10.67;;;13.80;99.90;;;;;;5012837;28;20423;-63
2022/10/03 07:26:20;;;;;;;17.30;11.30;;;13.90;99.90;;;;;;5012102;28;20437;-63
2022/10/03 07:29:06;;;;;;;14.50;10.00;;;14.00;99.90;;;;;;5013145;28;20432;-63
2022/10/03 07:31:32;;;;;;;15.10;9.80;;;14.00;99.90;;;;;;5012374;28;20914;-63
2022/10/03 07:34:16;;;;;;;17.50;10.53;;;14.10;99.90;;;;;;5012599;28;20407;-63
2022/10/03 07:39:54;;;;;;;15.67;10.40;;;14.20;99.90;;;;;;5012840;28;20403;-63
2022/10/03 07:42:48;;;;;;;12.67;10.37;;;14.30;99.90;;;;;;5011657;28;20441;-63
2022/10/03 07:45:29;;;;;;;13.90;9.30;;;14.30;99.90;;;;;;4994314;28;20539;-67
2022/10/03 07:48:28;;;;;;;16.30;10.57;;;14.40;99.90;;;;;;4994807;28;20814;-64
2022/10/03 07:51:13;;;;;;;20.93;10.50;;;14.50;99.90;;;;;;5012559;28;20409;-63
2022/10/03 07:53:42;;;;;;;13.70;8.90;;;14.60;99.90;;;;;;5011884;28;20402;-63
2022/10/03 07:56:10;;;;;;;13.30;9.53;;;14.60;99.90;;;;;;5012401;28;20458;-63
2022/10/03 07:58:57;;;;;;;12.53;9.37;;;14.80;99.90;;;;;;5011802;28;20418;-63
2022/10/03 08:02:07;;;;;;;15.00;10.50;;;14.80;99.90;;;;;;5012065;28;20408;-63
2022/10/03 08:05:05;;;;;;;13.00;9.13;;;15.00;99.90;;;;;;4959737;28;20462;-63
2022/10/03 08:07:40;;;;;;;14.10;10.97;;;15.10;99.90;;;;;;5011769;28;20460;-63
2022/10/03 08:10:42;;;;;;;11.63;10.43;;;15.20;99.90;;;;;;5015573;28;20459;-63
2022/10/03 08:13:20;;;;;;;17.93;8.70;;;15.20;99.90;;;;;;5015486;28;20811;-63
2022/10/03 08:16:33;;;;;;;16.43;9.00;;;15.20;99.90;;;;;;5015925;28;20814;-63
2022/10/03 08:19:54;;;;;;;9.93;7.53;;;15.30;99.90;;;;;;4970069;28;20915;-63
2022/10/03 08:22:36;;;;;;;20.43;12.60;;;15.30;99.90;;;;;;4944499;28;20438;-63
2022/10/03 08:25:33;;;;;;;16.03;10.43;;;15.30;99.90;;;;;;5015936;28;20424;-63
2022/10/03 08:28:17;;;;;;;12.23;9.27;;;15.40;99.90;;;;;;5015791;28;20400;-63
2022/10/03 08:31:16;;;;;;;12.30;8.40;;;15.50;99.90;;;;;;5015725;28;20410;-63
2022/10/03 08:34:01;;;;;;;10.77;7.80;;;15.50;99.90;;;;;;4995527;28;20764;-63
2022/10/03 08:36:48;;;;;;;11.40;7.57;;;15.70;99.90;;;;;;5014899;28;20515;-63
2022/10/03 08:39:40;;;;;;;10.67;8.03;;;15.70;99.90;;;;;;5015423;28;20516;-63
2022/10/03 08:42:19;;;;;;;10.90;7.63;;;15.90;99.90;;;;;;4997791;28;20421;-63
2022/10/03 08:45:11;;;;;;;12.53;7.93;;;16.00;99.90;;;;;;5015493;28;20853;-63
2022/10/03 08:48:09;;;;;;;7.30;6.60;;;16.00;99.90;;;;;;5014667;28;20447;-63
2022/10/03 08:50:40;;;;;;;7.80;6.20;;;16.10;99.90;;;;;;5014630;28;20501;-63
2022/10/03 08:53:11;;;;;;;7.73;6.23;;;16.20;99.90;;;;;;5015205;28;20398;-63
2022/10/03 08:55:44;;;;;;;7.20;6.43;;;16.30;99.90;;;;;;5014407;28;20626;-63
2022/10/03 08:58:40;;;;;;;8.17;7.00;;;16.40;99.90;;;;;;5015185;28;20580;-63
2022/10/03 09:01:34;;;;;;;9.30;6.70;;;16.50;99.90;;;;;;5014689;28;20813;-63
2022/10/03 09:04:06;;;;;;;8.40;6.50;;;16.70;99.90;;;;;;5014589;28;20917;-63
2022/10/03 09:06:36;;;;;;;9.43;7.23;;;16.80;99.90;;;;;;5014010;28;21009;-63
2022/10/03 09:10:06;;;;;;;9.10;5.93;;;16.90;99.90;;;;;;5014916;28;20767;-63
2022/10/03 09:12:41;;;;;;;10.57;6.07;;;17.00;99.90;;;;;;4953648;29;20419;-63
2022/10/03 09:15:19;;;;;;;11.00;5.67;;;17.10;99.90;;;;;;4954067;29;20468;-63
2022/10/03 09:18:21;;;;;;;6.87;6.00;;;17.30;99.90;;;;;;4951648;28;20804;-63
2022/10/03 09:21:25;;;;;;;5.80;4.70;;;17.50;99.90;;;;;;4994723;28;20786;-63
2022/10/03 09:24:06;;;;;;;4.60;4.17;;;17.60;99.90;;;;;;5014581;28;20418;-63
2022/10/03 09:27:02;;;;;;;6.47;4.67;;;17.80;99.90;;;;;;5013878;28;20421;-63
2022/10/03 09:29:49;;;;;;;4.97;4.00;;;18.00;99.90;;;;;;5013876;28;20402;-63
2022/10/03 09:32:40;;;;;;;5.37;4.40;;;18.10;99.90;;;;;;5014291;28;20452;-63
2022/10/03 09:35:34;;;;;;;9.50;4.70;;;18.10;99.90;;;;;;5014345;28;21016;-63
2022/10/03 09:38:18;;;;;;;8.63;4.50;;;18.10;99.90;;;;;;5014354;28;20584;-63
2022/10/03 09:41:11;;;;;;;7.57;4.20;;;18.00;99.90;;;;;;5013403;28;20908;-63
2022/10/03 09:43:58;;;;;;;5.80;3.90;;;18.00;99.90;;;;;;5013614;28;20902;-63
2022/10/03 09:47:21;;;;;;;6.80;3.67;;;17.90;99.90;;;;;;5013958;28;20460;-63
2022/10/03 09:49:40;;;;;;;6.23;4.23;;;17.90;99.90;;;;;;5013043;28;20428;-63
2022/10/03 09:52:31;;;;;;;8.93;4.30;;;17.70;99.90;;;;;;5014021;28;20461;-63
2022/10/03 09:55:18;;;;;;;5.67;4.00;;;17.50;99.90;;;;;;5014148;28;20442;-63
2022/10/03 09:58:18;;;;;;;6.83;3.97;;;17.50;99.90;;;;;;5013281;28;20405;-63
2022/10/03 10:01:04;;;;;;;8.77;3.83;;;17.50;99.90;;;;;;5013311;28;20414;-63
2022/10/03 10:03:39;;;;;;;4.37;3.50;;;17.50;99.90;;;;;;5013274;28;20450;-63
2022/10/03 10:06:24;;;;;;;5.97;4.30;;;17.60;99.90;;;;;;5013782;28;20484;-63
2022/10/03 10:09:01;;;;;;;5.73;3.50;;;17.60;99.90;;;;;;5013889;28;20414;-63
2022/10/03 10:11:50;;;;;;;6.03;3.50;;;17.60;99.90;;;;;;5013124;28;20435;-63
2022/10/03 10:14:28;;;;;;;5.70;4.00;;;17.60;99.90;;;;;;5013795;28;20502;-63
2022/10/03 10:17:02;;;;;;;6.93;3.70;;;17.50;99.90;;;;;;5013116;28;20484;-63
2022/10/03 10:19:35;;;;;;;7.00;3.57;;;17.50;99.90;;;;;;4995402;28;20897;-63
2022/10/03 10:22:01;;;;;;;5.53;3.60;;;17.50;99.90;;;;;;5013476;28;20406;-63
2022/10/03 10:24:45;;;;;;;4.43;3.43;;;17.50;99.90;;;;;;5012629;28;20443;-64
2022/10/03 10:27:44;;;;;;;7.10;3.40;;;17.50;99.90;;;;;;5013629;28;20210;-63
2022/10/03 10:30:33;;;;;;;4.73;3.90;;;17.50;99.90;;;;;;5013408;28;20512;-63
2022/10/03 10:33:05;;;;;;;9.80;3.80;;;17.50;99.90;;;;;;4984712;28;20469;-63
2022/10/03 10:36:03;;;;;;;5.17;3.90;;;17.70;99.90;;;;;;5012329;28;21007;-63
2022/10/03 10:38:50;;;;;;;8.40;4.80;;;17.90;99.90;;;;;;5012723;28;20448;-63
2022/10/03 10:41:16;;;;;;;4.50;4.10;;;18.20;99.90;;;;;;5013241;28;20406;-64
2022/10/03 10:44:07;;;;;;;4.83;4.20;;;18.50;99.90;;;;;;5012261;28;20418;-63
2022/10/03 10:47:01;;;;;;;5.13;3.93;;;18.70;99.50;;;;;;5011881;28;20187;-63
2022/10/03 10:49:47;;;;;;;4.23;3.93;;;18.80;98.80;;;;;;5012411;28;20771;-64
2022/10/03 10:52:34;;;;;;;4.10;3.70;;;18.80;98.60;;;;;;5013110;28;20496;-63
2022/10/03 10:55:38;;;;;;;4.13;3.30;;;18.80;97.40;;;;;;5012851;28;20454;-63
2022/10/03 10:58:28;;;;;;;3.60;3.30;;;18.70;98.10;;;;;;4995344;28;20794;-63
2022/10/03 11:01:29;;;;;;;5.90;3.90;;;18.70;98.40;;;;;;5012614;28;20426;-63
2022/10/03 11:04:30;;;;;;;7.20;4.50;;;18.80;98.40;;;;;;5012856;28;20398;-63
2022/10/03 11:07:16;;;;;;;5.97;4.17;;;19.00;99.40;;;;;;5001122;28;20823;-64
2022/10/03 11:10:15;;;;;;;7.47;4.00;;;19.40;98.40;;;;;;5012356;28;20410;-63
2022/10/03 11:13:09;;;;;;;5.63;3.90;;;19.70;96.80;;;;;;5012303;28;20452;-63
2022/10/03 11:16:20;;;;;;;5.37;4.60;;;20.00;94.60;;;;;;5011996;28;20480;-64
2022/10/03 11:19:00;;;;;;;4.63;4.23;;;20.00;94.40;;;;;;4997086;28;20587;-63
2022/10/03 11:21:58;;;;;;;4.20;3.90;;;20.00;94.60;;;;;;5012768;28;20417;-63
2022/10/03 11:24:51;;;;;;;6.20;3.90;;;19.90;94.20;;;;;;4995261;28;20882;-63
2022/10/03 11:27:45;;;;;;;11.80;4.30;;;19.80;94.50;;;;;;5012783;28;20414;-63
2022/10/03 11:30:41;;;;;;;4.60;3.60;;;19.70;95.30;;;;;;4995316;28;20394;-63
2022/10/03 11:33:37;;;;;;;3.97;3.30;;;19.60;94.60;;;;;;5012476;28;20408;-63
2022/10/03 11:36:36;;;;;;;4.30;3.90;;;19.50;95.10;;;;;;5012539;28;20450;-63
2022/10/03 11:39:28;;;;;;;5.40;4.03;;;19.50;95.80;;;;;;4995101;28;20402;-63
2022/10/03 11:42:08;;;;;;;5.43;3.57;;;19.40;95.80;;;;;;5004296;28;20426;-63
2022/10/03 11:44:53;;;;;;;6.93;3.63;;;19.30;96.50;;;;;;5013982;28;20429;-64
2022/10/03 11:47:45;;;;;;;4.03;3.60;;;19.20;96.60;;;;;;4998240;28;20418;-63
2022/10/03 11:50:29;;;;;;;4.73;4.13;;;19.10;96.40;;;;;;4998849;28;20506;-63
2022/10/03 11:53:07;;;;;;;5.13;3.90;;;19.00;96.50;;;;;;5016230;28;20504;-63
2022/10/03 11:55:46;;;;;;;6.50;4.20;;;19.00;97.10;;;;;;5015646;28;20461;-63
2022/10/03 11:58:31;;;;;;;6.30;4.20;;;18.90;97.80;;;;;;4998637;28;20500;-63
2022/10/03 12:01:06;;;;;;;3.93;3.63;;;18.90;97.80;;;;;;5016081;28;20439;-63
2022/10/03 12:03:42;;;;;;;4.80;3.80;;;18.80;98.00;;;;;;4997777;28;20457;-64
2022/10/03 12:09:45;;;;;;;5.20;4.00;;;18.90;96.80;;;;;;5016097;28;20405;-63
2022/10/03 12:12:27;;;;;;;4.60;4.10;;;19.00;97.10;;;;;;5014756;28;20409;-63
2022/10/03 12:14:57;;;;;;;3.97;3.67;;;19.10;96.80;;;;;;5014934;28;20831;-63
2022/10/03 12:17:35;;;;;;;4.57;3.93;;;19.10;96.50;;;;;;5014546;28;20433;-63
2022/10/03 12:20:09;;;;;;;4.13;3.70;;;19.20;96.50;;;;;;5015914;28;20414;-63
2022/10/03 12:22:48;;;;;;;4.23;3.83;;;19.20;94.40;;;;;;5014941;28;20760;-63
2022/10/03 12:25:22;;;;;;;4.53;3.40;;;19.20;93.60;;;;;;5014118;28;20414;-63
2022/10/03 12:28:14;;;;;;;4.43;4.00;;;19.20;94.20;;;;;;5014757;28;20421;-63
2022/10/03 12:31:00;;;;;;;6.60;4.57;;;19.10;94.50;;;;;;5014936;28;20425;-63
2022/10/03 12:33:50;;;;;;;5.13;4.63;;;19.10;95.00;;;;;;5015861;28;20402;-63
2022/10/03 12:36:34;;;;;;;5.80;4.20;;;19.00;96.00;;;;;;5014315;28;20466;-63
2022/10/03 12:39:18;;;;;;;4.13;3.80;;;19.00;95.20;;;;;;5015307;28;20399;-63
2022/10/03 12:42:31;;;;;;;4.33;4.03;;;18.90;95.40;;;;;;5014552;28;20404;-63
2022/10/03 12:45:07;;;;;;;4.23;3.50;;;18.80;95.50;;;;;;5006630;28;20461;-63
2022/10/03 12:48:06;;;;;;;6.57;4.30;;;18.70;96.20;;;;;;5014958;28;20429;-65
2022/10/03 12:50:38;;;;;;;6.03;4.13;;;18.70;96.40;;;;;;5014737;28;20422;-69
2022/10/03 12:53:16;;;;;;;6.53;4.63;;;18.70;96.60;;;;;;5015447;28;20424;-63
2022/10/03 12:56:06;;;;;;;6.40;4.60;;;18.70;97.10;;;;;;5012949;28;20493;-64
2022/10/03 12:59:03;;;;;;;6.40;5.07;;;18.70;96.70;;;;;;5015037;28;20520;-64
2022/10/03 13:01:49;;;;;;;6.40;5.80;;;18.70;96.30;;;;;;5014844;28;20394;-63
2022/10/03 13:04:36;;;;;;;6.07;5.13;;;18.60;95.50;;;;;;5014676;28;20416;-63
2022/10/03 13:07:17;;;;;;;5.50;4.07;;;18.60;95.70;;;;;;4989213;28;20473;-63
2022/10/03 13:10:01;;;;;;;5.27;4.77;;;18.60;95.70;;;;;;5013997;28;20402;-64
2022/10/03 13:12:30;;;;;;;4.90;4.60;;;18.60;95.90;;;;;;5014349;28;20421;-64
2022/10/03 13:15:20;;;;;;;5.53;4.50;;;18.60;94.80;;;;;;5014039;28;20417;-63
2022/10/03 13:18:02;;;;;;;11.73;8.70;;;18.60;94.30;;;;;;4996596;28;20504;-63
2022/10/03 13:20:34;;;;;;;5.47;4.83;;;18.60;94.00;;;;;;4932313;28;20422;-63
2022/10/03 13:23:22;;;;;;;4.20;3.90;;;18.50;94.00;;;;;;5014661;28;20410;-63
2022/10/03 13:26:02;;;;;;;4.03;3.73;;;18.50;94.90;;;;;;5013983;28;20809;-63
2022/10/03 13:28:51;;;;;;;5.00;4.57;;;18.60;95.40;;;;;;5014539;28;20870;-63
2022/10/03 13:31:23;;;;;;;4.40;4.00;;;18.60;95.10;;;;;;5014508;28;20398;-63
2022/10/03 13:33:56;;;;;;;5.00;3.93;;;18.60;95.30;;;;;;5013828;28;20456;-63
2022/10/03 13:36:33;;;;;;;4.93;4.40;;;18.80;95.00;;;;;;5013841;28;20489;-63
2022/10/03 13:39:33;;;;;;;5.30;3.60;;;18.90;95.60;;;;;;4995715;28;20398;-63
2022/10/03 13:42:31;;;;;;;3.37;3.17;;;18.90;94.20;;;;;;5013022;28;20422;-63
2022/10/03 13:45:13;;;;;;;3.80;3.50;;;19.00;93.50;;;;;;5013405;28;20793;-63
2022/10/03 13:47:51;;;;;;;3.80;3.60;;;18.90;93.60;;;;;;5013638;28;20418;-63
2022/10/03 13:50:20;;;;;;;4.10;3.57;;;18.90;94.40;;;;;;5014233;28;20798;-63
2022/10/03 13:53:00;;;;;;;3.60;3.30;;;18.80;94.10;;;;;;5013793;28;20414;-63
2022/10/03 13:55:40;;;;;;;4.90;4.40;;;18.80;94.80;;;;;;5014134;28;20458;-63
2022/10/03 13:58:27;;;;;;;4.20;3.90;;;18.80;95.80;;;;;;5014077;28;20406;-63
2022/10/03 14:01:26;;;;;;;4.77;3.63;;;18.80;96.00;;;;;;5013297;28;20525;-63
2022/10/03 14:04:24;;;;;;;5.13;4.20;;;18.80;95.90;;;;;;5013341;28;20457;-62
2022/10/03 14:07:09;;;;;;;5.30;3.87;;;18.90;95.00;;;;;;5012622;28;20501;-63
2022/10/03 14:10:15;;;;;;;6.47;4.47;;;19.00;95.40;;;;;;5013551;28;20418;-63
2022/10/03 14:13:09;;;;;;;5.23;4.60;;;19.10;95.70;;;;;;4959845;28;20432;-63
2022/10/03 14:15:57;;;;;;;4.33;4.13;;;19.10;94.90;;;;;;4995942;28;20466;-63
2022/10/03 14:18:32;;;;;;;4.37;4.07;;;19.10;94.80;;;;;;5013424;28;20776;-63
2022/10/03 14:21:22;;;;;;;4.53;4.13;;;19.10;93.90;;;;;;5013022;28;20413;-63
2022/10/03 14:24:06;;;;;;;5.03;4.63;;;19.20;95.00;;;;;;5012599;28;20814;-63
2022/10/03 14:26:46;;;;;;;5.70;5.20;;;19.20;95.10;;;;;;5013470;28;20410;-63
2022/10/03 14:29:22;;;;;;;4.70;4.30;;;19.30;94.90;;;;;;5013562;28;20808;-63
2022/10/03 14:32:11;;;;;;;5.17;4.67;;;19.40;94.30;;;;;;5012612;28;20432;-63
2022/10/03 14:34:37;;;;;;;7.20;5.70;;;19.50;94.30;;;;;;4962737;28;20787;-63
2022/10/03 14:37:39;;;;;;;9.30;7.73;;;19.50;93.00;;;;;;5013440;28;20493;-64